sensor_id;sensor_type;location;lat;lon;timestamp;P1;durP1;ratioP1;P2;durP2;ratioP2
44137;SDS011;29800;55.942;37.314;2023-08-30T00:01:03;13.68;;;9.93;;
44137;SDS011;29800;55.942;37.314;2023-08-30T00:03:30;13.73;;;9.32;;
44137;SDS011;29800;55.942;37.314;2023-08-30T00:06:01;12.70;;;8.77;;
44137;SDS011;29800;55.942;37.314;2023-08-30T00:08:30;12.63;;;9.00;;
44137;SDS011;29800;55.942;37.314;2023-08-30T00:10:56;11.93;;;9.15;;
44137;SDS011;29800;55.942;37.314;2023-08-30T00:13:25;17.23;;;9.93;;
44137;SDS011;29800;55.942;37.314;2023-08-30T00:15:52;11.98;;;9.15;;
44137;SDS011;29800;55.942;37.314;2023-08-30T00:18:18;12.52;;;8.32;;
44137;SDS011;29800;55.942;37.314;2023-08-30T00:20:47;11.65;;;8.43;;
44137;SDS011;29800;55.942;37.314;2023-08-30T00:23:14;10.75;;;8.68;;
44137;SDS011;29800;55.942;37.314;2023-08-30T00:25:42;11.10;;;7.35;;
44137;SDS011;29800;55.942;37.314;2023-08-30T00:28:09;8.85;;;6.93;;
44137;SDS011;29800;55.942;37.314;2023-08-30T00:30:35;9.68;;;6.20;;
44137;SDS011;29800;55.942;37.314;2023-08-30T00:33:04;10.52;;;6.80;;
44137;SDS011;29800;55.942;37.314;2023-08-30T00:35:30;9.63;;;7.15;;
44137;SDS011;29800;55.942;37.314;2023-08-30T00:37:57;8.23;;;6.60;;
44137;SDS011;29800;55.942;37.314;2023-08-30T00:40:23;10.77;;;7.40;;
44137;SDS011;29800;55.942;37.314;2023-08-30T00:42:53;10.20;;;7.75;;
44137;SDS011;29800;55.942;37.314;2023-08-30T00:45:19;8.45;;;7.05;;
44137;SDS011;29800;55.942;37.314;2023-08-30T00:47:45;9.98;;;7.20;;
44137;SDS011;29800;55.942;37.314;2023-08-30T00:50:12;10.25;;;7.38;;
44137;SDS011;29800;55.942;37.314;2023-08-30T00:52:39;8.32;;;6.57;;
44137;SDS011;29800;55.942;37.314;2023-08-30T00:55:05;8.68;;;6.25;;
44137;SDS011;29800;55.942;37.314;2023-08-30T00:57:33;9.68;;;6.53;;
44137;SDS011;29800;55.942;37.314;2023-08-30T01:00:00;7.15;;;6.15;;
44137;SDS011;29800;55.942;37.314;2023-08-30T01:02:29;8.52;;;6.53;;
44137;SDS011;29800;55.942;37.314;2023-08-30T01:04:58;7.80;;;6.50;;
44137;SDS011;29800;55.942;37.314;2023-08-30T01:07:25;8.80;;;6.45;;
44137;SDS011;29800;55.942;37.314;2023-08-30T01:09:53;12.15;;;6.50;;
44137;SDS011;29800;55.942;37.314;2023-08-30T01:12:23;9.25;;;5.95;;
44137;SDS011;29800;55.942;37.314;2023-08-30T01:15:12;9.52;;;6.45;;
44137;SDS011;29800;55.942;37.314;2023-08-30T01:17:47;7.75;;;5.95;;
44137;SDS011;29800;55.942;37.314;2023-08-30T01:20:14;9.35;;;6.18;;
44137;SDS011;29800;55.942;37.314;2023-08-30T01:22:50;14.55;;;6.20;;
44137;SDS011;29800;55.942;37.314;2023-08-30T01:25:46;7.38;;;6.05;;
44137;SDS011;29800;55.942;37.314;2023-08-30T01:28:22;7.35;;;6.10;;
44137;SDS011;29800;55.942;37.314;2023-08-30T01:30:52;7.45;;;6.53;;
44137;SDS011;29800;55.942;37.314;2023-08-30T01:33:20;8.13;;;6.05;;
44137;SDS011;29800;55.942;37.314;2023-08-30T01:35:47;8.07;;;6.38;;
44137;SDS011;29800;55.942;37.314;2023-08-30T01:38:13;9.30;;;6.60;;
44137;SDS011;29800;55.942;37.314;2023-08-30T01:40:41;7.30;;;6.30;;
44137;SDS011;29800;55.942;37.314;2023-08-30T01:43:09;7.93;;;6.40;;
44137;SDS011;29800;55.942;37.314;2023-08-30T01:45:40;9.48;;;6.75;;
44137;SDS011;29800;55.942;37.314;2023-08-30T01:48:09;8.85;;;6.72;;
44137;SDS011;29800;55.942;37.314;2023-08-30T01:50:38;8.48;;;6.38;;
44137;SDS011;29800;55.942;37.314;2023-08-30T01:53:06;8.27;;;6.22;;
44137;SDS011;29800;55.942;37.314;2023-08-30T01:55:34;8.60;;;6.85;;
44137;SDS011;29800;55.942;37.314;2023-08-30T01:58:02;7.38;;;5.93;;
44137;SDS011;29800;55.942;37.314;2023-08-30T02:00:29;7.05;;;6.28;;
44137;SDS011;29800;55.942;37.314;2023-08-30T02:02:56;9.30;;;6.82;;
44137;SDS011;29800;55.942;37.314;2023-08-30T02:05:22;8.02;;;6.45;;
44137;SDS011;29800;55.942;37.314;2023-08-30T02:08:00;8.23;;;6.45;;
44137;SDS011;29800;55.942;37.314;2023-08-30T02:10:35;9.55;;;7.50;;
44137;SDS011;29800;55.942;37.314;2023-08-30T02:13:06;9.80;;;6.80;;
44137;SDS011;29800;55.942;37.314;2023-08-30T02:15:33;7.95;;;6.45;;
44137;SDS011;29800;55.942;37.314;2023-08-30T02:18:03;7.35;;;5.95;;
44137;SDS011;29800;55.942;37.314;2023-08-30T02:20:31;8.95;;;6.28;;
44137;SDS011;29800;55.942;37.314;2023-08-30T02:22:58;7.53;;;6.38;;
44137;SDS011;29800;55.942;37.314;2023-08-30T02:25:25;8.07;;;6.10;;
44137;SDS011;29800;55.942;37.314;2023-08-30T02:27:54;7.30;;;5.90;;
44137;SDS011;29800;55.942;37.314;2023-08-30T02:30:20;8.60;;;5.95;;
44137;SDS011;29800;55.942;37.314;2023-08-30T02:32:47;7.43;;;6.00;;
44137;SDS011;29800;55.942;37.314;2023-08-30T02:35:16;8.20;;;6.47;;
44137;SDS011;29800;55.942;37.314;2023-08-30T02:37:42;8.43;;;6.38;;
44137;SDS011;29800;55.942;37.314;2023-08-30T02:40:09;8.80;;;6.10;;
44137;SDS011;29800;55.942;37.314;2023-08-30T02:42:38;8.07;;;6.60;;
44137;SDS011;29800;55.942;37.314;2023-08-30T02:45:04;9.68;;;6.28;;
44137;SDS011;29800;55.942;37.314;2023-08-30T02:47:31;9.23;;;6.65;;
44137;SDS011;29800;55.942;37.314;2023-08-30T02:50:00;8.77;;;7.20;;
44137;SDS011;29800;55.942;37.314;2023-08-30T02:52:26;9.00;;;6.53;;
44137;SDS011;29800;55.942;37.314;2023-08-30T02:54:52;8.77;;;6.10;;
44137;SDS011;29800;55.942;37.314;2023-08-30T02:57:18;11.73;;;6.70;;
44137;SDS011;29800;55.942;37.314;2023-08-30T02:59:45;7.25;;;5.63;;
44137;SDS011;29800;55.942;37.314;2023-08-30T03:02:11;8.82;;;6.30;;
44137;SDS011;29800;55.942;37.314;2023-08-30T03:04:37;8.93;;;6.80;;
44137;SDS011;29800;55.942;37.314;2023-08-30T03:07:04;8.85;;;7.15;;
44137;SDS011;29800;55.942;37.314;2023-08-30T03:09:30;7.95;;;6.28;;
44137;SDS011;29800;55.942;37.314;2023-08-30T03:11:57;7.93;;;6.53;;
44137;SDS011;29800;55.942;37.314;2023-08-30T03:14:23;8.60;;;6.47;;
44137;SDS011;29800;55.942;37.314;2023-08-30T03:16:50;8.93;;;6.72;;
44137;SDS011;29800;55.942;37.314;2023-08-30T03:19:16;8.25;;;6.60;;
44137;SDS011;29800;55.942;37.314;2023-08-30T03:21:43;7.57;;;6.32;;
44137;SDS011;29800;55.942;37.314;2023-08-30T03:24:10;8.02;;;6.47;;
44137;SDS011;29800;55.942;37.314;2023-08-30T03:26:36;8.60;;;6.53;;
44137;SDS011;29800;55.942;37.314;2023-08-30T03:29:02;8.27;;;6.32;;
44137;SDS011;29800;55.942;37.314;2023-08-30T03:31:29;9.10;;;6.85;;
44137;SDS011;29800;55.942;37.314;2023-08-30T03:33:55;7.78;;;6.35;;
44137;SDS011;29800;55.942;37.314;2023-08-30T03:36:21;7.03;;;5.88;;
44137;SDS011;29800;55.942;37.314;2023-08-30T03:38:47;8.73;;;6.50;;
44137;SDS011;29800;55.942;37.314;2023-08-30T03:41:14;7.05;;;5.68;;
44137;SDS011;29800;55.942;37.314;2023-08-30T03:43:42;7.55;;;6.00;;
44137;SDS011;29800;55.942;37.314;2023-08-30T03:46:09;8.23;;;6.55;;
44137;SDS011;29800;55.942;37.314;2023-08-30T03:48:37;7.47;;;5.95;;
44137;SDS011;29800;55.942;37.314;2023-08-30T03:51:03;7.28;;;6.07;;
44137;SDS011;29800;55.942;37.314;2023-08-30T03:53:30;9.57;;;6.30;;
44137;SDS011;29800;55.942;37.314;2023-08-30T03:55:56;8.38;;;6.03;;
44137;SDS011;29800;55.942;37.314;2023-08-30T03:58:23;8.55;;;6.32;;
44137;SDS011;29800;55.942;37.314;2023-08-30T04:00:50;8.15;;;6.30;;
44137;SDS011;29800;55.942;37.314;2023-08-30T04:03:16;10.93;;;6.72;;
44137;SDS011;29800;55.942;37.314;2023-08-30T04:05:43;8.43;;;6.30;;
44137;SDS011;29800;55.942;37.314;2023-08-30T04:08:09;7.55;;;6.28;;
44137;SDS011;29800;55.942;37.314;2023-08-30T04:10:36;6.15;;;5.30;;
44137;SDS011;29800;55.942;37.314;2023-08-30T04:13:04;8.07;;;5.68;;
44137;SDS011;29800;55.942;37.314;2023-08-30T04:15:34;8.80;;;6.18;;
44137;SDS011;29800;55.942;37.314;2023-08-30T04:18:02;7.60;;;5.60;;
44137;SDS011;29800;55.942;37.314;2023-08-30T04:20:29;10.38;;;5.57;;
44137;SDS011;29800;55.942;37.314;2023-08-30T04:22:56;7.13;;;5.57;;
44137;SDS011;29800;55.942;37.314;2023-08-30T04:25:23;6.57;;;5.07;;
44137;SDS011;29800;55.942;37.314;2023-08-30T04:27:50;7.25;;;5.80;;
44137;SDS011;29800;55.942;37.314;2023-08-30T04:30:16;6.60;;;4.90;;
44137;SDS011;29800;55.942;37.314;2023-08-30T04:32:43;6.68;;;4.93;;
44137;SDS011;29800;55.942;37.314;2023-08-30T04:35:09;6.95;;;5.32;;
44137;SDS011;29800;55.942;37.314;2023-08-30T04:37:36;7.97;;;5.57;;
44137;SDS011;29800;55.942;37.314;2023-08-30T04:40:08;7.18;;;4.70;;
44137;SDS011;29800;55.942;37.314;2023-08-30T04:42:36;6.90;;;4.82;;
44137;SDS011;29800;55.942;37.314;2023-08-30T04:45:06;6.55;;;5.30;;
44137;SDS011;29800;55.942;37.314;2023-08-30T04:47:34;6.72;;;4.82;;
44137;SDS011;29800;55.942;37.314;2023-08-30T04:50:02;5.43;;;4.30;;
44137;SDS011;29800;55.942;37.314;2023-08-30T04:52:32;5.72;;;4.90;;
44137;SDS011;29800;55.942;37.314;2023-08-30T04:54:59;6.65;;;4.82;;
44137;SDS011;29800;55.942;37.314;2023-08-30T04:57:31;6.43;;;4.72;;
44137;SDS011;29800;55.942;37.314;2023-08-30T04:59:57;6.28;;;4.18;;
44137;SDS011;29800;55.942;37.314;2023-08-30T05:02:23;6.03;;;4.50;;
44137;SDS011;29800;55.942;37.314;2023-08-30T05:04:56;4.55;;;3.38;;
44137;SDS011;29800;55.942;37.314;2023-08-30T05:07:24;7.32;;;3.63;;
44137;SDS011;29800;55.942;37.314;2023-08-30T05:09:51;4.72;;;3.40;;
44137;SDS011;29800;55.942;37.314;2023-08-30T05:12:17;6.22;;;3.60;;
44137;SDS011;29800;55.942;37.314;2023-08-30T05:14:43;4.20;;;3.03;;
44137;SDS011;29800;55.942;37.314;2023-08-30T05:17:10;5.18;;;3.80;;
44137;SDS011;29800;55.942;37.314;2023-08-30T05:19:36;4.53;;;3.72;;
44137;SDS011;29800;55.942;37.314;2023-08-30T05:22:04;4.45;;;3.60;;
44137;SDS011;29800;55.942;37.314;2023-08-30T05:24:30;4.32;;;3.38;;
44137;SDS011;29800;55.942;37.314;2023-08-30T05:26:57;4.82;;;3.25;;
44137;SDS011;29800;55.942;37.314;2023-08-30T05:29:25;5.00;;;3.42;;
44137;SDS011;29800;55.942;37.314;2023-08-30T05:31:52;5.45;;;3.28;;
44137;SDS011;29800;55.942;37.314;2023-08-30T05:34:35;4.05;;;3.10;;
44137;SDS011;29800;55.942;37.314;2023-08-30T05:37:30;4.13;;;3.00;;
44137;SDS011;29800;55.942;37.314;2023-08-30T05:39:56;4.00;;;2.80;;
44137;SDS011;29800;55.942;37.314;2023-08-30T05:42:24;6.55;;;2.63;;
44137;SDS011;29800;55.942;37.314;2023-08-30T05:44:50;4.75;;;2.80;;
44137;SDS011;29800;55.942;37.314;2023-08-30T05:47:16;4.45;;;2.90;;
44137;SDS011;29800;55.942;37.314;2023-08-30T05:49:45;4.10;;;2.63;;
44137;SDS011;29800;55.942;37.314;2023-08-30T05:52:11;3.65;;;3.08;;
44137;SDS011;29800;55.942;37.314;2023-08-30T05:54:37;4.63;;;2.70;;
44137;SDS011;29800;55.942;37.314;2023-08-30T05:57:04;6.82;;;2.53;;
44137;SDS011;29800;55.942;37.314;2023-08-30T05:59:30;4.13;;;2.20;;
44137;SDS011;29800;55.942;37.314;2023-08-30T06:01:57;4.10;;;2.80;;
44137;SDS011;29800;55.942;37.314;2023-08-30T06:04:23;3.50;;;2.75;;
44137;SDS011;29800;55.942;37.314;2023-08-30T06:06:49;3.80;;;2.40;;
44137;SDS011;29800;55.942;37.314;2023-08-30T06:09:16;2.97;;;2.38;;
44137;SDS011;29800;55.942;37.314;2023-08-30T06:11:42;2.97;;;2.15;;
44137;SDS011;29800;55.942;37.314;2023-08-30T06:14:09;3.22;;;2.35;;
44137;SDS011;29800;55.942;37.314;2023-08-30T06:16:35;3.50;;;2.50;;
44137;SDS011;29800;55.942;37.314;2023-08-30T06:19:02;4.63;;;2.35;;
44137;SDS011;29800;55.942;37.314;2023-08-30T06:21:28;3.00;;;2.30;;
44137;SDS011;29800;55.942;37.314;2023-08-30T06:23:54;2.92;;;2.20;;
44137;SDS011;29800;55.942;37.314;2023-08-30T06:26:21;4.97;;;2.30;;
44137;SDS011;29800;55.942;37.314;2023-08-30T06:28:47;3.55;;;2.22;;
44137;SDS011;29800;55.942;37.314;2023-08-30T06:31:13;5.80;;;2.20;;
44137;SDS011;29800;55.942;37.314;2023-08-30T06:33:40;2.60;;;1.92;;
44137;SDS011;29800;55.942;37.314;2023-08-30T06:36:07;3.95;;;2.42;;
44137;SDS011;29800;55.942;37.314;2023-08-30T06:38:33;3.63;;;2.30;;
44137;SDS011;29800;55.942;37.314;2023-08-30T06:41:00;3.50;;;2.13;;
44137;SDS011;29800;55.942;37.314;2023-08-30T06:43:26;3.65;;;2.20;;
44137;SDS011;29800;55.942;37.314;2023-08-30T06:45:52;4.38;;;2.75;;
44137;SDS011;29800;55.942;37.314;2023-08-30T06:48:19;3.33;;;2.30;;
44137;SDS011;29800;55.942;37.314;2023-08-30T06:50:45;4.55;;;2.40;;
44137;SDS011;29800;55.942;37.314;2023-08-30T06:53:11;4.25;;;2.50;;
44137;SDS011;29800;55.942;37.314;2023-08-30T06:55:38;4.03;;;2.65;;
44137;SDS011;29800;55.942;37.314;2023-08-30T06:58:04;4.28;;;2.67;;
44137;SDS011;29800;55.942;37.314;2023-08-30T07:00:31;3.55;;;2.72;;
44137;SDS011;29800;55.942;37.314;2023-08-30T07:02:57;3.40;;;2.33;;
44137;SDS011;29800;55.942;37.314;2023-08-30T07:05:23;3.40;;;2.08;;
44137;SDS011;29800;55.942;37.314;2023-08-30T07:07:50;6.00;;;2.60;;
44137;SDS011;29800;55.942;37.314;2023-08-30T07:10:16;3.10;;;2.20;;
44137;SDS011;29800;55.942;37.314;2023-08-30T07:12:44;4.20;;;2.20;;
44137;SDS011;29800;55.942;37.314;2023-08-30T07:15:14;3.70;;;2.28;;
44137;SDS011;29800;55.942;37.314;2023-08-30T07:17:42;4.35;;;2.60;;
44137;SDS011;29800;55.942;37.314;2023-08-30T07:20:09;6.07;;;2.90;;
44137;SDS011;29800;55.942;37.314;2023-08-30T07:22:36;9.45;;;2.78;;
44137;SDS011;29800;55.942;37.314;2023-08-30T07:25:02;3.20;;;2.20;;
44137;SDS011;29800;55.942;37.314;2023-08-30T07:27:30;4.00;;;2.20;;
44137;SDS011;29800;55.942;37.314;2023-08-30T07:29:56;3.92;;;2.53;;
44137;SDS011;29800;55.942;37.314;2023-08-30T07:32:23;4.65;;;2.60;;
44137;SDS011;29800;55.942;37.314;2023-08-30T07:34:49;5.70;;;2.55;;
44137;SDS011;29800;55.942;37.314;2023-08-30T07:37:16;4.95;;;2.65;;
44137;SDS011;29800;55.942;37.314;2023-08-30T07:39:44;4.10;;;2.80;;
44137;SDS011;29800;55.942;37.314;2023-08-30T07:42:11;4.40;;;2.70;;
44137;SDS011;29800;55.942;37.314;2023-08-30T07:44:37;3.80;;;2.63;;
44137;SDS011;29800;55.942;37.314;2023-08-30T07:47:04;7.15;;;2.78;;
44137;SDS011;29800;55.942;37.314;2023-08-30T07:49:30;5.57;;;2.90;;
44137;SDS011;29800;55.942;37.314;2023-08-30T07:51:56;3.58;;;2.40;;
44137;SDS011;29800;55.942;37.314;2023-08-30T07:54:23;4.28;;;2.85;;
44137;SDS011;29800;55.942;37.314;2023-08-30T07:56:49;3.08;;;2.60;;
44137;SDS011;29800;55.942;37.314;2023-08-30T07:59:15;3.45;;;2.40;;
44137;SDS011;29800;55.942;37.314;2023-08-30T08:01:41;3.55;;;2.38;;
44137;SDS011;29800;55.942;37.314;2023-08-30T08:04:08;3.38;;;2.35;;
44137;SDS011;29800;55.942;37.314;2023-08-30T08:06:34;4.70;;;2.30;;
44137;SDS011;29800;55.942;37.314;2023-08-30T08:09:00;3.05;;;2.20;;
44137;SDS011;29800;55.942;37.314;2023-08-30T08:11:27;5.00;;;2.22;;
44137;SDS011;29800;55.942;37.314;2023-08-30T08:13:53;8.55;;;3.42;;
44137;SDS011;29800;55.942;37.314;2023-08-30T08:16:20;3.78;;;2.40;;
44137;SDS011;29800;55.942;37.314;2023-08-30T08:18:46;4.43;;;2.30;;
44137;SDS011;29800;55.942;37.314;2023-08-30T08:21:13;3.58;;;2.30;;
44137;SDS011;29800;55.942;37.314;2023-08-30T08:23:39;3.08;;;2.40;;
44137;SDS011;29800;55.942;37.314;2023-08-30T08:26:06;6.93;;;2.60;;
44137;SDS011;29800;55.942;37.314;2023-08-30T08:28:33;4.53;;;2.40;;
44137;SDS011;29800;55.942;37.314;2023-08-30T08:31:00;4.07;;;2.20;;
44137;SDS011;29800;55.942;37.314;2023-08-30T08:33:27;5.15;;;2.22;;
44137;SDS011;29800;55.942;37.314;2023-08-30T08:35:53;3.10;;;2.10;;
44137;SDS011;29800;55.942;37.314;2023-08-30T08:38:20;3.85;;;2.35;;
44137;SDS011;29800;55.942;37.314;2023-08-30T08:40:47;3.00;;;2.05;;
44137;SDS011;29800;55.942;37.314;2023-08-30T08:43:16;3.35;;;1.98;;
44137;SDS011;29800;55.942;37.314;2023-08-30T08:45:45;3.22;;;2.28;;
44137;SDS011;29800;55.942;37.314;2023-08-30T08:48:15;4.53;;;2.08;;
44137;SDS011;29800;55.942;37.314;2023-08-30T08:50:42;3.67;;;2.00;;
44137;SDS011;29800;55.942;37.314;2023-08-30T08:53:15;2.60;;;1.98;;
44137;SDS011;29800;55.942;37.314;2023-08-30T08:55:42;2.67;;;1.92;;
44137;SDS011;29800;55.942;37.314;2023-08-30T08:58:11;2.75;;;1.80;;
44137;SDS011;29800;55.942;37.314;2023-08-30T09:00:39;2.95;;;1.83;;
44137;SDS011;29800;55.942;37.314;2023-08-30T09:03:05;2.40;;;1.67;;
44137;SDS011;29800;55.942;37.314;2023-08-30T09:05:33;2.45;;;1.80;;
44137;SDS011;29800;55.942;37.314;2023-08-30T09:08:04;3.03;;;2.00;;
44137;SDS011;29800;55.942;37.314;2023-08-30T09:10:32;3.60;;;2.05;;
44137;SDS011;29800;55.942;37.314;2023-08-30T09:12:59;3.53;;;2.10;;
44137;SDS011;29800;55.942;37.314;2023-08-30T09:15:35;6.25;;;2.78;;
44137;SDS011;29800;55.942;37.314;2023-08-30T09:18:04;4.80;;;2.22;;
44137;SDS011;29800;55.942;37.314;2023-08-30T09:20:41;4.97;;;1.77;;
44137;SDS011;29800;55.942;37.314;2023-08-30T09:23:17;2.65;;;1.88;;
44137;SDS011;29800;55.942;37.314;2023-08-30T09:25:47;3.80;;;2.03;;
44137;SDS011;29800;55.942;37.314;2023-08-30T09:28:21;3.80;;;2.10;;
44137;SDS011;29800;55.942;37.314;2023-08-30T09:30:50;3.38;;;2.00;;
44137;SDS011;29800;55.942;37.314;2023-08-30T09:33:29;4.82;;;2.20;;
44137;SDS011;29800;55.942;37.314;2023-08-30T09:35:59;4.70;;;2.00;;
44137;SDS011;29800;55.942;37.314;2023-08-30T09:38:26;6.18;;;2.40;;
44137;SDS011;29800;55.942;37.314;2023-08-30T09:41:05;3.28;;;2.00;;
44137;SDS011;29800;55.942;37.314;2023-08-30T09:43:32;4.57;;;2.15;;
44137;SDS011;29800;55.942;37.314;2023-08-30T09:46:05;5.63;;;2.30;;
44137;SDS011;29800;55.942;37.314;2023-08-30T09:48:31;6.70;;;2.28;;
44137;SDS011;29800;55.942;37.314;2023-08-30T09:50:58;3.55;;;2.20;;
44137;SDS011;29800;55.942;37.314;2023-08-30T09:53:25;4.22;;;2.90;;
44137;SDS011;29800;55.942;37.314;2023-08-30T09:55:55;7.45;;;2.20;;
44137;SDS011;29800;55.942;37.314;2023-08-30T09:58:23;3.65;;;2.40;;
44137;SDS011;29800;55.942;37.314;2023-08-30T10:00:53;4.30;;;2.00;;
44137;SDS011;29800;55.942;37.314;2023-08-30T10:03:20;4.10;;;1.92;;
44137;SDS011;29800;55.942;37.314;2023-08-30T10:05:48;5.68;;;1.92;;
44137;SDS011;29800;55.942;37.314;2023-08-30T10:08:15;4.65;;;1.90;;
44137;SDS011;29800;55.942;37.314;2023-08-30T10:10:43;4.78;;;2.00;;
44137;SDS011;29800;55.942;37.314;2023-08-30T10:13:09;3.83;;;1.80;;
44137;SDS011;29800;55.942;37.314;2023-08-30T10:15:39;2.70;;;1.75;;
44137;SDS011;29800;55.942;37.314;2023-08-30T10:18:09;4.20;;;1.90;;
44137;SDS011;29800;55.942;37.314;2023-08-30T10:20:40;5.70;;;2.08;;
44137;SDS011;29800;55.942;37.314;2023-08-30T10:23:07;5.50;;;2.33;;
44137;SDS011;29800;55.942;37.314;2023-08-30T10:25:34;2.97;;;2.20;;
44137;SDS011;29800;55.942;37.314;2023-08-30T10:28:01;3.25;;;2.05;;
44137;SDS011;29800;55.942;37.314;2023-08-30T10:30:28;2.35;;;1.63;;
44137;SDS011;29800;55.942;37.314;2023-08-30T10:32:55;2.53;;;2.00;;
44137;SDS011;29800;55.942;37.314;2023-08-30T10:35:21;2.55;;;1.83;;
44137;SDS011;29800;55.942;37.314;2023-08-30T10:37:55;5.35;;;1.80;;
44137;SDS011;29800;55.942;37.314;2023-08-30T10:40:22;4.65;;;2.22;;
44137;SDS011;29800;55.942;37.314;2023-08-30T10:43:04;4.80;;;2.00;;
44137;SDS011;29800;55.942;37.314;2023-08-30T10:45:31;5.80;;;2.17;;
44137;SDS011;29800;55.942;37.314;2023-08-30T10:47:58;3.72;;;2.30;;
44137;SDS011;29800;55.942;37.314;2023-08-30T10:50:29;4.50;;;2.00;;
44137;SDS011;29800;55.942;37.314;2023-08-30T10:52:56;4.55;;;2.42;;
44137;SDS011;29800;55.942;37.314;2023-08-30T10:55:23;3.58;;;2.00;;
44137;SDS011;29800;55.942;37.314;2023-08-30T10:58:00;4.38;;;1.90;;
44137;SDS011;29800;55.942;37.314;2023-08-30T11:00:38;4.88;;;2.40;;
44137;SDS011;29800;55.942;37.314;2023-08-30T11:03:16;3.88;;;2.00;;
44137;SDS011;29800;55.942;37.314;2023-08-30T11:05:43;3.38;;;2.13;;
44137;SDS011;29800;55.942;37.314;2023-08-30T11:08:15;3.50;;;2.10;;
44137;SDS011;29800;55.942;37.314;2023-08-30T11:10:42;2.97;;;1.95;;
44137;SDS011;29800;55.942;37.314;2023-08-30T11:13:24;4.60;;;2.17;;
44137;SDS011;29800;55.942;37.314;2023-08-30T11:15:52;3.28;;;1.90;;
44137;SDS011;29800;55.942;37.314;2023-08-30T11:18:19;6.03;;;1.73;;
44137;SDS011;29800;55.942;37.314;2023-08-30T11:20:45;4.10;;;2.00;;
44137;SDS011;29800;55.942;37.314;2023-08-30T11:23:12;4.10;;;2.40;;
44137;SDS011;29800;55.942;37.314;2023-08-30T11:25:39;3.28;;;1.88;;
44137;SDS011;29800;55.942;37.314;2023-08-30T11:28:05;3.20;;;1.80;;
44137;SDS011;29800;55.942;37.314;2023-08-30T11:30:31;4.07;;;2.10;;
44137;SDS011;29800;55.942;37.314;2023-08-30T11:32:59;9.18;;;2.15;;
44137;SDS011;29800;55.942;37.314;2023-08-30T11:35:28;3.40;;;1.80;;
44137;SDS011;29800;55.942;37.314;2023-08-30T11:37:56;3.90;;;1.80;;
44137;SDS011;29800;55.942;37.314;2023-08-30T11:40:22;2.63;;;1.70;;
44137;SDS011;29800;55.942;37.314;2023-08-30T11:42:48;2.70;;;2.00;;
44137;SDS011;29800;55.942;37.314;2023-08-30T11:45:15;3.80;;;2.33;;
44137;SDS011;29800;55.942;37.314;2023-08-30T11:47:42;4.78;;;1.92;;
44137;SDS011;29800;55.942;37.314;2023-08-30T11:50:09;4.57;;;1.80;;
44137;SDS011;29800;55.942;37.314;2023-08-30T11:52:37;2.92;;;1.75;;
44137;SDS011;29800;55.942;37.314;2023-08-30T11:55:05;5.72;;;1.80;;
44137;SDS011;29800;55.942;37.314;2023-08-30T11:57:33;3.85;;;2.00;;
44137;SDS011;29800;55.942;37.314;2023-08-30T12:00:07;2.80;;;2.10;;
44137;SDS011;29800;55.942;37.314;2023-08-30T12:02:39;4.78;;;1.90;;
44137;SDS011;29800;55.942;37.314;2023-08-30T12:05:10;3.65;;;1.90;;
44137;SDS011;29800;55.942;37.314;2023-08-30T12:07:37;2.50;;;1.73;;
44137;SDS011;29800;55.942;37.314;2023-08-30T12:10:10;3.83;;;1.90;;
44137;SDS011;29800;55.942;37.314;2023-08-30T12:12:37;3.50;;;1.92;;
44137;SDS011;29800;55.942;37.314;2023-08-30T12:15:08;2.80;;;1.80;;
44137;SDS011;29800;55.942;37.314;2023-08-30T12:17:35;3.38;;;2.00;;
44137;SDS011;29800;55.942;37.314;2023-08-30T12:20:01;3.05;;;2.20;;
44137;SDS011;29800;55.942;37.314;2023-08-30T12:25:24;3.75;;;1.58;;
44137;SDS011;29800;55.942;37.314;2023-08-30T12:27:52;2.42;;;1.52;;
44137;SDS011;29800;55.942;37.314;2023-08-30T12:30:18;3.40;;;1.88;;
44137;SDS011;29800;55.942;37.314;2023-08-30T12:32:45;2.40;;;1.85;;
44137;SDS011;29800;55.942;37.314;2023-08-30T12:35:12;5.22;;;1.85;;
44137;SDS011;29800;55.942;37.314;2023-08-30T12:37:39;3.28;;;1.65;;
44137;SDS011;29800;55.942;37.314;2023-08-30T12:40:06;5.05;;;1.80;;
44137;SDS011;29800;55.942;37.314;2023-08-30T12:42:33;2.70;;;1.60;;
44137;SDS011;29800;55.942;37.314;2023-08-30T12:44:59;6.82;;;1.58;;
44137;SDS011;29800;55.942;37.314;2023-08-30T12:47:30;2.78;;;1.58;;
44137;SDS011;29800;55.942;37.314;2023-08-30T12:49:56;3.60;;;1.58;;
44137;SDS011;29800;55.942;37.314;2023-08-30T12:52:22;4.75;;;1.58;;
44137;SDS011;29800;55.942;37.314;2023-08-30T12:54:49;4.72;;;1.52;;
44137;SDS011;29800;55.942;37.314;2023-08-30T12:57:15;2.60;;;1.75;;
44137;SDS011;29800;55.942;37.314;2023-08-30T12:59:41;2.60;;;1.67;;
44137;SDS011;29800;55.942;37.314;2023-08-30T13:02:08;3.42;;;1.83;;
44137;SDS011;29800;55.942;37.314;2023-08-30T13:04:35;3.85;;;1.90;;
44137;SDS011;29800;55.942;37.314;2023-08-30T13:07:03;4.32;;;1.75;;
44137;SDS011;29800;55.942;37.314;2023-08-30T13:09:30;2.97;;;1.60;;
44137;SDS011;29800;55.942;37.314;2023-08-30T13:11:56;3.63;;;1.75;;
44137;SDS011;29800;55.942;37.314;2023-08-30T13:14:23;2.30;;;1.60;;
44137;SDS011;29800;55.942;37.314;2023-08-30T13:16:49;3.60;;;1.50;;
44137;SDS011;29800;55.942;37.314;2023-08-30T13:19:15;3.25;;;1.58;;
44137;SDS011;29800;55.942;37.314;2023-08-30T13:21:42;2.55;;;1.35;;
44137;SDS011;29800;55.942;37.314;2023-08-30T13:24:08;2.40;;;1.50;;
44137;SDS011;29800;55.942;37.314;2023-08-30T13:26:34;4.60;;;1.75;;
44137;SDS011;29800;55.942;37.314;2023-08-30T13:29:01;2.55;;;1.83;;
44137;SDS011;29800;55.942;37.314;2023-08-30T13:31:28;2.97;;;1.60;;
44137;SDS011;29800;55.942;37.314;2023-08-30T13:33:54;2.30;;;1.60;;
44137;SDS011;29800;55.942;37.314;2023-08-30T13:36:20;3.28;;;1.77;;
44137;SDS011;29800;55.942;37.314;2023-08-30T13:38:47;3.42;;;2.10;;
44137;SDS011;29800;55.942;37.314;2023-08-30T13:41:13;4.50;;;1.92;;
44137;SDS011;29800;55.942;37.314;2023-08-30T13:43:39;3.50;;;1.85;;
44137;SDS011;29800;55.942;37.314;2023-08-30T13:46:06;2.92;;;1.95;;
44137;SDS011;29800;55.942;37.314;2023-08-30T13:48:32;3.60;;;2.08;;
44137;SDS011;29800;55.942;37.314;2023-08-30T13:50:59;3.63;;;2.40;;
44137;SDS011;29800;55.942;37.314;2023-08-30T13:53:25;2.80;;;1.98;;
44137;SDS011;29800;55.942;37.314;2023-08-30T13:55:51;4.30;;;2.10;;
44137;SDS011;29800;55.942;37.314;2023-08-30T13:58:18;3.92;;;2.20;;
44137;SDS011;29800;55.942;37.314;2023-08-30T14:00:44;3.97;;;2.10;;
44137;SDS011;29800;55.942;37.314;2023-08-30T14:03:12;3.38;;;1.85;;
44137;SDS011;29800;55.942;37.314;2023-08-30T14:05:39;8.82;;;2.47;;
44137;SDS011;29800;55.942;37.314;2023-08-30T14:08:08;4.90;;;2.20;;
44137;SDS011;29800;55.942;37.314;2023-08-30T14:10:34;3.60;;;2.05;;
44137;SDS011;29800;55.942;37.314;2023-08-30T14:13:01;7.20;;;2.30;;
44137;SDS011;29800;55.942;37.314;2023-08-30T14:15:27;7.72;;;3.78;;
44137;SDS011;29800;55.942;37.314;2023-08-30T14:17:54;6.20;;;3.00;;
44137;SDS011;29800;55.942;37.314;2023-08-30T14:20:20;8.82;;;2.80;;
44137;SDS011;29800;55.942;37.314;2023-08-30T14:22:47;8.02;;;2.70;;
44137;SDS011;29800;55.942;37.314;2023-08-30T14:25:13;4.40;;;3.00;;
44137;SDS011;29800;55.942;37.314;2023-08-30T14:27:40;4.53;;;2.53;;
44137;SDS011;29800;55.942;37.314;2023-08-30T14:30:06;5.95;;;2.40;;
44137;SDS011;29800;55.942;37.314;2023-08-30T14:32:33;6.97;;;2.58;;
44137;SDS011;29800;55.942;37.314;2023-08-30T14:34:59;4.90;;;2.35;;
44137;SDS011;29800;55.942;37.314;2023-08-30T14:37:25;6.45;;;2.42;;
44137;SDS011;29800;55.942;37.314;2023-08-30T14:39:52;4.07;;;1.75;;